sensor_id;sensor_type;location;lat;lon;timestamp;P1;durP1;ratioP1;P2;durP2;ratioP2
9288;SDS011;4683;50.864;12.086;2022-11-02T00:01:36;9.57;;;5.70;;
9288;SDS011;4683;50.864;12.086;2022-11-02T00:04:07;7.93;;;5.03;;
9288;SDS011;4683;50.864;12.086;2022-11-02T00:06:36;6.63;;;4.90;;
9288;SDS011;4683;50.864;12.086;2022-11-02T00:09:07;5.40;;;4.90;;
9288;SDS011;4683;50.864;12.086;2022-11-02T00:11:36;6.77;;;4.13;;
9288;SDS011;4683;50.864;12.086;2022-11-02T00:14:05;11.03;;;4.77;;
9288;SDS011;4683;50.864;12.086;2022-11-02T00:16:35;6.77;;;4.17;;
9288;SDS011;4683;50.864;12.086;2022-11-02T00:19:06;8.10;;;4.03;;
9288;SDS011;4683;50.864;12.086;2022-11-02T00:21:36;6.47;;;3.93;;
9288;SDS011;4683;50.864;12.086;2022-11-02T00:24:06;4.40;;;3.63;;
9288;SDS011;4683;50.864;12.086;2022-11-02T00:26:42;4.77;;;3.83;;
9288;SDS011;4683;50.864;12.086;2022-11-02T00:29:10;6.30;;;3.83;;
9288;SDS011;4683;50.864;12.086;2022-11-02T00:31:39;4.57;;;4.10;;
9288;SDS011;4683;50.864;12.086;2022-11-02T00:34:08;6.23;;;3.67;;
9288;SDS011;4683;50.864;12.086;2022-11-02T00:36:37;6.20;;;3.60;;
9288;SDS011;4683;50.864;12.086;2022-11-02T00:39:13;5.53;;;3.47;;
9288;SDS011;4683;50.864;12.086;2022-11-02T00:41:42;4.03;;;3.30;;
9288;SDS011;4683;50.864;12.086;2022-11-02T00:44:11;5.53;;;3.43;;
9288;SDS011;4683;50.864;12.086;2022-11-02T00:46:40;7.20;;;3.83;;
9288;SDS011;4683;50.864;12.086;2022-11-02T00:49:14;6.93;;;3.40;;
9288;SDS011;4683;50.864;12.086;2022-11-02T00:51:42;6.27;;;3.90;;
9288;SDS011;4683;50.864;12.086;2022-11-02T00:54:12;5.03;;;3.30;;
9288;SDS011;4683;50.864;12.086;2022-11-02T00:56:42;5.50;;;3.00;;
9288;SDS011;4683;50.864;12.086;2022-11-02T00:59:11;5.60;;;3.00;;
9288;SDS011;4683;50.864;12.086;2022-11-02T01:01:40;4.17;;;3.07;;
9288;SDS011;4683;50.864;12.086;2022-11-02T01:04:12;7.70;;;3.30;;
9288;SDS011;4683;50.864;12.086;2022-11-02T01:06:42;4.27;;;3.50;;
9288;SDS011;4683;50.864;12.086;2022-11-02T01:09:29;6.53;;;3.10;;
9288;SDS011;4683;50.864;12.086;2022-11-02T01:11:58;4.90;;;3.27;;
9288;SDS011;4683;50.864;12.086;2022-11-02T01:14:27;5.00;;;2.83;;
9288;SDS011;4683;50.864;12.086;2022-11-02T01:16:56;6.50;;;3.63;;
9288;SDS011;4683;50.864;12.086;2022-11-02T01:19:25;6.87;;;3.47;;
9288;SDS011;4683;50.864;12.086;2022-11-02T01:21:54;6.43;;;3.17;;
9288;SDS011;4683;50.864;12.086;2022-11-02T01:24:23;6.73;;;3.30;;
9288;SDS011;4683;50.864;12.086;2022-11-02T01:26:53;6.20;;;3.63;;
9288;SDS011;4683;50.864;12.086;2022-11-02T01:29:22;6.13;;;3.47;;
9288;SDS011;4683;50.864;12.086;2022-11-02T01:31:51;6.27;;;3.47;;
9288;SDS011;4683;50.864;12.086;2022-11-02T01:34:20;5.93;;;3.67;;
9288;SDS011;4683;50.864;12.086;2022-11-02T01:36:49;10.23;;;4.50;;
9288;SDS011;4683;50.864;12.086;2022-11-02T01:39:18;4.90;;;3.60;;
9288;SDS011;4683;50.864;12.086;2022-11-02T01:41:49;6.03;;;4.00;;
9288;SDS011;4683;50.864;12.086;2022-11-02T01:44:27;5.57;;;3.10;;
9288;SDS011;4683;50.864;12.086;2022-11-02T01:47:02;6.57;;;3.80;;
9288;SDS011;4683;50.864;12.086;2022-11-02T01:49:35;7.27;;;2.83;;
9288;SDS011;4683;50.864;12.086;2022-11-02T01:52:10;4.80;;;2.87;;
9288;SDS011;4683;50.864;12.086;2022-11-02T01:54:43;4.73;;;2.90;;
9288;SDS011;4683;50.864;12.086;2022-11-02T01:57:18;5.43;;;2.93;;
9288;SDS011;4683;50.864;12.086;2022-11-02T01:59:51;3.50;;;2.93;;
9288;SDS011;4683;50.864;12.086;2022-11-02T02:02:26;3.23;;;2.93;;
9288;SDS011;4683;50.864;12.086;2022-11-02T02:04:58;7.53;;;3.00;;
9288;SDS011;4683;50.864;12.086;2022-11-02T02:07:31;5.30;;;2.53;;
9288;SDS011;4683;50.864;12.086;2022-11-02T02:10:03;8.20;;;3.07;;
9288;SDS011;4683;50.864;12.086;2022-11-02T02:12:33;3.67;;;2.93;;
9288;SDS011;4683;50.864;12.086;2022-11-02T02:15:06;5.47;;;2.80;;
9288;SDS011;4683;50.864;12.086;2022-11-02T02:17:40;9.30;;;3.20;;
9288;SDS011;4683;50.864;12.086;2022-11-02T02:20:19;7.80;;;3.10;;
9288;SDS011;4683;50.864;12.086;2022-11-02T02:23:13;6.47;;;3.80;;
9288;SDS011;4683;50.864;12.086;2022-11-02T02:26:18;6.13;;;3.40;;
9288;SDS011;4683;50.864;12.086;2022-11-02T02:29:15;6.50;;;3.00;;
9288;SDS011;4683;50.864;12.086;2022-11-02T02:31:50;3.23;;;2.50;;
9288;SDS011;4683;50.864;12.086;2022-11-02T02:34:28;4.87;;;2.90;;
9288;SDS011;4683;50.864;12.086;2022-11-02T02:37:06;4.27;;;3.00;;
9288;SDS011;4683;50.864;12.086;2022-11-02T02:39:41;4.03;;;2.40;;
9288;SDS011;4683;50.864;12.086;2022-11-02T02:42:18;5.60;;;3.07;;
9288;SDS011;4683;50.864;12.086;2022-11-02T02:44:57;5.30;;;3.10;;
9288;SDS011;4683;50.864;12.086;2022-11-02T02:47:32;5.07;;;3.00;;
9288;SDS011;4683;50.864;12.086;2022-11-02T02:50:07;5.03;;;2.97;;
9288;SDS011;4683;50.864;12.086;2022-11-02T02:52:42;3.80;;;2.43;;
9288;SDS011;4683;50.864;12.086;2022-11-02T02:55:15;4.63;;;3.10;;
9288;SDS011;4683;50.864;12.086;2022-11-02T02:57:48;4.37;;;2.50;;
9288;SDS011;4683;50.864;12.086;2022-11-02T03:00:22;5.47;;;2.77;;
9288;SDS011;4683;50.864;12.086;2022-11-02T03:02:51;6.20;;;2.90;;
9288;SDS011;4683;50.864;12.086;2022-11-02T03:05:29;4.67;;;2.70;;
9288;SDS011;4683;50.864;12.086;2022-11-02T03:08:01;4.87;;;2.53;;
9288;SDS011;4683;50.864;12.086;2022-11-02T03:10:36;5.23;;;2.73;;
9288;SDS011;4683;50.864;12.086;2022-11-02T03:13:17;4.40;;;2.70;;
9288;SDS011;4683;50.864;12.086;2022-11-02T03:16:06;3.30;;;2.40;;
9288;SDS011;4683;50.864;12.086;2022-11-02T03:18:51;6.73;;;3.00;;
9288;SDS011;4683;50.864;12.086;2022-11-02T03:21:26;5.40;;;2.40;;
9288;SDS011;4683;50.864;12.086;2022-11-02T03:24:03;6.97;;;2.90;;
9288;SDS011;4683;50.864;12.086;2022-11-02T03:26:39;6.50;;;3.40;;
9288;SDS011;4683;50.864;12.086;2022-11-02T03:29:17;8.07;;;3.10;;
9288;SDS011;4683;50.864;12.086;2022-11-02T03:31:54;5.47;;;2.90;;
9288;SDS011;4683;50.864;12.086;2022-11-02T03:34:27;4.20;;;2.90;;
9288;SDS011;4683;50.864;12.086;2022-11-02T03:37:05;6.80;;;2.97;;
9288;SDS011;4683;50.864;12.086;2022-11-02T03:39:47;5.33;;;2.70;;
9288;SDS011;4683;50.864;12.086;2022-11-02T03:42:19;6.23;;;2.80;;
9288;SDS011;4683;50.864;12.086;2022-11-02T03:44:54;4.53;;;2.73;;
9288;SDS011;4683;50.864;12.086;2022-11-02T03:47:29;4.80;;;2.67;;
9288;SDS011;4683;50.864;12.086;2022-11-02T03:50:06;6.67;;;3.63;;
9288;SDS011;4683;50.864;12.086;2022-11-02T03:52:44;6.10;;;2.83;;
9288;SDS011;4683;50.864;12.086;2022-11-02T03:55:16;5.30;;;2.50;;
9288;SDS011;4683;50.864;12.086;2022-11-02T03:57:49;5.20;;;3.50;;
9288;SDS011;4683;50.864;12.086;2022-11-02T04:00:19;6.60;;;2.50;;
9288;SDS011;4683;50.864;12.086;2022-11-02T04:02:52;4.33;;;2.60;;
9288;SDS011;4683;50.864;12.086;2022-11-02T04:05:27;3.60;;;2.63;;
9288;SDS011;4683;50.864;12.086;2022-11-02T04:07:57;4.17;;;2.10;;
9288;SDS011;4683;50.864;12.086;2022-11-02T04:10:43;4.27;;;2.50;;
9288;SDS011;4683;50.864;12.086;2022-11-02T04:13:25;4.97;;;2.73;;
9288;SDS011;4683;50.864;12.086;2022-11-02T04:16:11;4.67;;;2.67;;
9288;SDS011;4683;50.864;12.086;2022-11-02T04:18:42;6.73;;;3.23;;
9288;SDS011;4683;50.864;12.086;2022-11-02T04:21:28;6.73;;;3.30;;
9288;SDS011;4683;50.864;12.086;2022-11-02T04:23:56;5.30;;;2.60;;
9288;SDS011;4683;50.864;12.086;2022-11-02T04:26:43;5.57;;;2.87;;
9288;SDS011;4683;50.864;12.086;2022-11-02T04:29:12;3.60;;;2.60;;
9288;SDS011;4683;50.864;12.086;2022-11-02T04:31:40;4.03;;;2.60;;
9288;SDS011;4683;50.864;12.086;2022-11-02T04:34:11;5.33;;;2.50;;
9288;SDS011;4683;50.864;12.086;2022-11-02T04:36:38;5.13;;;2.70;;
9288;SDS011;4683;50.864;12.086;2022-11-02T04:39:07;7.73;;;3.00;;
9288;SDS011;4683;50.864;12.086;2022-11-02T04:41:34;2.77;;;2.50;;
9288;SDS011;4683;50.864;12.086;2022-11-02T04:44:08;5.80;;;2.60;;
9288;SDS011;4683;50.864;12.086;2022-11-02T04:46:39;4.53;;;2.70;;
9288;SDS011;4683;50.864;12.086;2022-11-02T04:49:12;5.80;;;2.80;;
9288;SDS011;4683;50.864;12.086;2022-11-02T04:51:41;4.37;;;2.70;;
9288;SDS011;4683;50.864;12.086;2022-11-02T04:54:10;4.37;;;2.40;;
9288;SDS011;4683;50.864;12.086;2022-11-02T04:56:43;6.13;;;2.53;;
9288;SDS011;4683;50.864;12.086;2022-11-02T04:59:11;6.57;;;3.13;;
9288;SDS011;4683;50.864;12.086;2022-11-02T05:01:40;4.83;;;2.77;;
9288;SDS011;4683;50.864;12.086;2022-11-02T05:04:08;5.00;;;2.60;;
9288;SDS011;4683;50.864;12.086;2022-11-02T05:06:38;3.70;;;3.03;;
9288;SDS011;4683;50.864;12.086;2022-11-02T05:09:07;3.87;;;2.70;;
9288;SDS011;4683;50.864;12.086;2022-11-02T05:11:36;6.70;;;3.07;;
9288;SDS011;4683;50.864;12.086;2022-11-02T05:14:04;5.03;;;2.67;;
9288;SDS011;4683;50.864;12.086;2022-11-02T05:16:33;7.57;;;3.07;;
9288;SDS011;4683;50.864;12.086;2022-11-02T05:19:01;6.57;;;2.90;;
9288;SDS011;4683;50.864;12.086;2022-11-02T05:21:29;4.67;;;2.60;;
9288;SDS011;4683;50.864;12.086;2022-11-02T05:23:59;5.67;;;2.83;;
9288;SDS011;4683;50.864;12.086;2022-11-02T05:26:28;4.50;;;2.70;;
9288;SDS011;4683;50.864;12.086;2022-11-02T05:28:56;5.33;;;3.37;;
9288;SDS011;4683;50.864;12.086;2022-11-02T05:31:24;5.80;;;3.10;;
9288;SDS011;4683;50.864;12.086;2022-11-02T05:33:52;6.93;;;3.63;;
9288;SDS011;4683;50.864;12.086;2022-11-02T05:36:22;5.13;;;2.80;;
9288;SDS011;4683;50.864;12.086;2022-11-02T05:38:51;4.83;;;3.27;;
9288;SDS011;4683;50.864;12.086;2022-11-02T05:41:21;5.87;;;2.73;;
9288;SDS011;4683;50.864;12.086;2022-11-02T05:43:50;8.50;;;3.10;;
9288;SDS011;4683;50.864;12.086;2022-11-02T05:46:18;6.97;;;2.77;;
9288;SDS011;4683;50.864;12.086;2022-11-02T05:48:46;5.33;;;3.00;;
9288;SDS011;4683;50.864;12.086;2022-11-02T05:51:16;4.70;;;2.70;;
9288;SDS011;4683;50.864;12.086;2022-11-02T05:53:44;6.43;;;3.40;;
9288;SDS011;4683;50.864;12.086;2022-11-02T05:56:12;5.63;;;3.30;;
9288;SDS011;4683;50.864;12.086;2022-11-02T05:58:42;5.97;;;3.60;;
9288;SDS011;4683;50.864;12.086;2022-11-02T06:01:10;7.17;;;3.67;;
9288;SDS011;4683;50.864;12.086;2022-11-02T06:03:40;6.37;;;3.70;;
9288;SDS011;4683;50.864;12.086;2022-11-02T06:06:09;10.83;;;3.80;;
9288;SDS011;4683;50.864;12.086;2022-11-02T06:08:38;5.27;;;3.40;;
9288;SDS011;4683;50.864;12.086;2022-11-02T06:11:07;7.87;;;3.33;;
9288;SDS011;4683;50.864;12.086;2022-11-02T06:13:37;6.50;;;3.63;;
9288;SDS011;4683;50.864;12.086;2022-11-02T06:16:09;5.47;;;3.67;;
9288;SDS011;4683;50.864;12.086;2022-11-02T06:18:40;6.27;;;3.00;;
9288;SDS011;4683;50.864;12.086;2022-11-02T06:21:09;6.93;;;3.47;;
9288;SDS011;4683;50.864;12.086;2022-11-02T06:23:37;7.67;;;3.53;;
9288;SDS011;4683;50.864;12.086;2022-11-02T06:26:07;7.20;;;3.50;;
9288;SDS011;4683;50.864;12.086;2022-11-02T06:28:37;11.33;;;3.20;;
9288;SDS011;4683;50.864;12.086;2022-11-02T06:31:07;5.63;;;3.50;;
9288;SDS011;4683;50.864;12.086;2022-11-02T06:33:36;6.30;;;3.20;;
9288;SDS011;4683;50.864;12.086;2022-11-02T06:36:04;7.63;;;3.00;;
9288;SDS011;4683;50.864;12.086;2022-11-02T06:38:34;6.03;;;2.37;;
9288;SDS011;4683;50.864;12.086;2022-11-02T06:41:03;8.10;;;3.20;;
9288;SDS011;4683;50.864;12.086;2022-11-02T06:43:32;7.90;;;2.83;;
9288;SDS011;4683;50.864;12.086;2022-11-02T06:46:04;7.63;;;2.57;;
9288;SDS011;4683;50.864;12.086;2022-11-02T06:48:34;5.57;;;2.30;;
9288;SDS011;4683;50.864;12.086;2022-11-02T06:51:03;5.37;;;2.67;;
9288;SDS011;4683;50.864;12.086;2022-11-02T06:53:32;7.47;;;3.37;;
9288;SDS011;4683;50.864;12.086;2022-11-02T06:56:01;9.30;;;3.13;;
9288;SDS011;4683;50.864;12.086;2022-11-02T06:58:29;6.50;;;2.90;;
9288;SDS011;4683;50.864;12.086;2022-11-02T07:00:59;7.67;;;6.53;;
9288;SDS011;4683;50.864;12.086;2022-11-02T07:03:28;4.83;;;2.77;;
9288;SDS011;4683;50.864;12.086;2022-11-02T07:06:03;9.80;;;3.53;;
9288;SDS011;4683;50.864;12.086;2022-11-02T07:08:32;6.87;;;3.07;;
9288;SDS011;4683;50.864;12.086;2022-11-02T07:11:00;6.53;;;2.90;;
9288;SDS011;4683;50.864;12.086;2022-11-02T07:13:30;6.83;;;2.80;;
9288;SDS011;4683;50.864;12.086;2022-11-02T07:15:58;5.03;;;2.27;;
9288;SDS011;4683;50.864;12.086;2022-11-02T07:18:26;4.53;;;2.27;;
9288;SDS011;4683;50.864;12.086;2022-11-02T07:20:54;11.50;;;6.40;;
9288;SDS011;4683;50.864;12.086;2022-11-02T07:23:27;11.20;;;5.37;;
9288;SDS011;4683;50.864;12.086;2022-11-02T07:25:56;9.23;;;5.37;;
9288;SDS011;4683;50.864;12.086;2022-11-02T07:28:27;16.43;;;7.53;;
9288;SDS011;4683;50.864;12.086;2022-11-02T07:31:00;16.03;;;8.13;;
9288;SDS011;4683;50.864;12.086;2022-11-02T07:33:28;16.57;;;9.03;;
9288;SDS011;4683;50.864;12.086;2022-11-02T07:35:57;15.03;;;7.83;;
9288;SDS011;4683;50.864;12.086;2022-11-02T07:38:25;15.10;;;6.67;;
9288;SDS011;4683;50.864;12.086;2022-11-02T07:40:55;10.37;;;4.90;;
9288;SDS011;4683;50.864;12.086;2022-11-02T07:43:23;11.27;;;4.67;;
9288;SDS011;4683;50.864;12.086;2022-11-02T07:45:52;7.97;;;3.27;;
9288;SDS011;4683;50.864;12.086;2022-11-02T07:48:21;8.90;;;3.50;;
9288;SDS011;4683;50.864;12.086;2022-11-02T07:50:50;6.47;;;2.87;;
9288;SDS011;4683;50.864;12.086;2022-11-02T07:53:19;5.80;;;2.93;;
9288;SDS011;4683;50.864;12.086;2022-11-02T07:55:49;9.80;;;3.40;;
9288;SDS011;4683;50.864;12.086;2022-11-02T07:58:18;11.93;;;5.17;;
9288;SDS011;4683;50.864;12.086;2022-11-02T08:00:47;8.73;;;4.03;;
9288;SDS011;4683;50.864;12.086;2022-11-02T08:03:15;7.90;;;3.90;;
9288;SDS011;4683;50.864;12.086;2022-11-02T08:05:44;8.43;;;4.43;;
9288;SDS011;4683;50.864;12.086;2022-11-02T08:08:13;11.43;;;6.47;;
9288;SDS011;4683;50.864;12.086;2022-11-02T08:10:44;8.80;;;3.87;;
9288;SDS011;4683;50.864;12.086;2022-11-02T08:13:16;6.00;;;3.13;;
9288;SDS011;4683;50.864;12.086;2022-11-02T08:15:47;7.37;;;3.87;;
9288;SDS011;4683;50.864;12.086;2022-11-02T08:18:20;6.77;;;3.30;;
9288;SDS011;4683;50.864;12.086;2022-11-02T08:20:50;16.90;;;8.57;;
9288;SDS011;4683;50.864;12.086;2022-11-02T08:23:21;12.60;;;6.47;;
9288;SDS011;4683;50.864;12.086;2022-11-02T08:25:50;10.90;;;5.70;;
9288;SDS011;4683;50.864;12.086;2022-11-02T08:28:23;11.20;;;5.80;;
9288;SDS011;4683;50.864;12.086;2022-11-02T08:30:53;15.73;;;9.83;;
9288;SDS011;4683;50.864;12.086;2022-11-02T08:33:23;18.03;;;11.20;;
9288;SDS011;4683;50.864;12.086;2022-11-02T08:35:51;12.13;;;8.50;;
9288;SDS011;4683;50.864;12.086;2022-11-02T08:38:20;12.50;;;7.00;;
9288;SDS011;4683;50.864;12.086;2022-11-02T08:40:48;8.37;;;3.87;;
9288;SDS011;4683;50.864;12.086;2022-11-02T08:43:16;4.70;;;3.37;;
9288;SDS011;4683;50.864;12.086;2022-11-02T08:45:48;6.43;;;2.90;;
9288;SDS011;4683;50.864;12.086;2022-11-02T08:48:17;4.53;;;2.10;;
9288;SDS011;4683;50.864;12.086;2022-11-02T08:50:46;3.73;;;2.10;;
9288;SDS011;4683;50.864;12.086;2022-11-02T08:53:16;3.77;;;2.03;;
9288;SDS011;4683;50.864;12.086;2022-11-02T08:55:44;6.03;;;2.90;;
9288;SDS011;4683;50.864;12.086;2022-11-02T08:58:12;3.67;;;1.90;;
9288;SDS011;4683;50.864;12.086;2022-11-02T09:00:45;4.17;;;2.57;;
9288;SDS011;4683;50.864;12.086;2022-11-02T09:03:16;4.47;;;2.43;;
9288;SDS011;4683;50.864;12.086;2022-11-02T09:05:45;5.07;;;1.93;;
9288;SDS011;4683;50.864;12.086;2022-11-02T09:08:14;4.10;;;2.60;;
9288;SDS011;4683;50.864;12.086;2022-11-02T09:10:45;4.20;;;2.50;;
9288;SDS011;4683;50.864;12.086;2022-11-02T09:13:17;4.03;;;2.13;;
9288;SDS011;4683;50.864;12.086;2022-11-02T09:15:50;6.40;;;2.40;;
9288;SDS011;4683;50.864;12.086;2022-11-02T09:18:21;4.53;;;2.17;;
9288;SDS011;4683;50.864;12.086;2022-11-02T09:20:51;4.90;;;2.00;;
9288;SDS011;4683;50.864;12.086;2022-11-02T09:23:19;4.03;;;1.80;;
9288;SDS011;4683;50.864;12.086;2022-11-02T09:25:48;4.80;;;2.03;;
9288;SDS011;4683;50.864;12.086;2022-11-02T09:28:17;3.67;;;1.97;;
9288;SDS011;4683;50.864;12.086;2022-11-02T09:30:45;2.17;;;1.80;;
9288;SDS011;4683;50.864;12.086;2022-11-02T09:33:14;2.10;;;1.37;;
9288;SDS011;4683;50.864;12.086;2022-11-02T09:35:44;8.57;;;2.40;;
9288;SDS011;4683;50.864;12.086;2022-11-02T09:38:15;3.53;;;1.77;;
9288;SDS011;4683;50.864;12.086;2022-11-02T09:40:44;3.90;;;2.03;;
9288;SDS011;4683;50.864;12.086;2022-11-02T09:43:23;3.47;;;1.20;;
9288;SDS011;4683;50.864;12.086;2022-11-02T09:46:04;5.53;;;2.07;;
9288;SDS011;4683;50.864;12.086;2022-11-02T09:48:37;2.83;;;1.17;;
9288;SDS011;4683;50.864;12.086;2022-11-02T09:51:11;6.87;;;1.47;;
9288;SDS011;4683;50.864;12.086;2022-11-02T09:53:45;3.80;;;1.70;;
9288;SDS011;4683;50.864;12.086;2022-11-02T09:56:23;2.83;;;1.60;;
9288;SDS011;4683;50.864;12.086;2022-11-02T09:58:54;6.17;;;2.03;;
9288;SDS011;4683;50.864;12.086;2022-11-02T10:01:29;4.87;;;1.70;;
9288;SDS011;4683;50.864;12.086;2022-11-02T10:04:19;3.17;;;1.20;;
9288;SDS011;4683;50.864;12.086;2022-11-02T10:07:19;2.87;;;1.77;;
9288;SDS011;4683;50.864;12.086;2022-11-02T10:10:04;2.63;;;1.83;;
9288;SDS011;4683;50.864;12.086;2022-11-02T10:12:42;3.43;;;2.03;;
9288;SDS011;4683;50.864;12.086;2022-11-02T10:15:24;3.73;;;1.67;;
9288;SDS011;4683;50.864;12.086;2022-11-02T10:18:03;3.17;;;1.43;;
9288;SDS011;4683;50.864;12.086;2022-11-02T10:20:37;3.53;;;1.80;;
9288;SDS011;4683;50.864;12.086;2022-11-02T10:23:13;2.90;;;1.17;;
9288;SDS011;4683;50.864;12.086;2022-11-02T10:25:47;3.30;;;1.43;;
9288;SDS011;4683;50.864;12.086;2022-11-02T10:28:17;4.03;;;1.50;;
9288;SDS011;4683;50.864;12.086;2022-11-02T10:30:50;3.10;;;1.50;;
9288;SDS011;4683;50.864;12.086;2022-11-02T10:33:22;5.10;;;2.07;;
9288;SDS011;4683;50.864;12.086;2022-11-02T10:35:56;2.90;;;1.50;;
9288;SDS011;4683;50.864;12.086;2022-11-02T10:38:46;3.90;;;1.20;;
9288;SDS011;4683;50.864;12.086;2022-11-02T10:41:32;3.07;;;1.50;;
9288;SDS011;4683;50.864;12.086;2022-11-02T10:47:24;1.70;;;0.77;;
9288;SDS011;4683;50.864;12.086;2022-11-02T10:50:00;4.27;;;1.97;;
9288;SDS011;4683;50.864;12.086;2022-11-02T10:53:03;3.13;;;1.33;;
9288;SDS011;4683;50.864;12.086;2022-11-02T10:55:43;5.17;;;1.80;;
9288;SDS011;4683;50.864;12.086;2022-11-02T10:58:20;3.13;;;1.50;;
9288;SDS011;4683;50.864;12.086;2022-11-02T11:00:50;3.93;;;1.90;;
9288;SDS011;4683;50.864;12.086;2022-11-02T11:03:32;4.47;;;1.70;;
9288;SDS011;4683;50.864;12.086;2022-11-02T11:06:18;4.97;;;2.00;;
9288;SDS011;4683;50.864;12.086;2022-11-02T11:08:48;4.53;;;1.40;;
9288;SDS011;4683;50.864;12.086;2022-11-02T11:11:20;3.13;;;1.63;;
9288;SDS011;4683;50.864;12.086;2022-11-02T11:13:54;5.87;;;1.33;;
9288;SDS011;4683;50.864;12.086;2022-11-02T11:19:26;3.13;;;1.37;;
9288;SDS011;4683;50.864;12.086;2022-11-02T11:22:01;1.53;;;1.20;;
9288;SDS011;4683;50.864;12.086;2022-11-02T11:24:44;1.60;;;1.43;;
9288;SDS011;4683;50.864;12.086;2022-11-02T11:27:16;2.97;;;1.60;;
9288;SDS011;4683;50.864;12.086;2022-11-02T11:29:55;2.63;;;1.80;;
9288;SDS011;4683;50.864;12.086;2022-11-02T11:32:25;4.63;;;2.07;;
9288;SDS011;4683;50.864;12.086;2022-11-02T11:34:56;4.00;;;1.50;;
9288;SDS011;4683;50.864;12.086;2022-11-02T11:37:28;3.47;;;1.60;;
9288;SDS011;4683;50.864;12.086;2022-11-02T11:39:58;4.93;;;1.90;;
9288;SDS011;4683;50.864;12.086;2022-11-02T11:42:33;5.20;;;1.63;;
9288;SDS011;4683;50.864;12.086;2022-11-02T11:45:03;2.57;;;1.77;;
9288;SDS011;4683;50.864;12.086;2022-11-02T11:47:40;3.30;;;1.37;;
9288;SDS011;4683;50.864;12.086;2022-11-02T11:50:11;2.40;;;1.03;;
9288;SDS011;4683;50.864;12.086;2022-11-02T11:52:43;8.57;;;2.00;;
9288;SDS011;4683;50.864;12.086;2022-11-02T11:55:22;4.77;;;1.47;;
9288;SDS011;4683;50.864;12.086;2022-11-02T11:58:06;3.30;;;1.37;;
9288;SDS011;4683;50.864;12.086;2022-11-02T12:00:42;1.80;;;1.27;;
9288;SDS011;4683;50.864;12.086;2022-11-02T12:03:11;2.13;;;1.30;;
9288;SDS011;4683;50.864;12.086;2022-11-02T12:05:44;3.80;;;1.70;;
9288;SDS011;4683;50.864;12.086;2022-11-02T12:11:25;4.40;;;2.00;;
9288;SDS011;4683;50.864;12.086;2022-11-02T12:14:11;2.17;;;1.00;;
9288;SDS011;4683;50.864;12.086;2022-11-02T12:17:06;4.90;;;2.00;;
9288;SDS011;4683;50.864;12.086;2022-11-02T12:19:59;3.53;;;1.13;;
9288;SDS011;4683;50.864;12.086;2022-11-02T12:22:43;4.73;;;2.00;;
9288;SDS011;4683;50.864;12.086;2022-11-02T12:25:26;4.33;;;1.77;;
9288;SDS011;4683;50.864;12.086;2022-11-02T12:28:15;2.97;;;1.33;;
9288;SDS011;4683;50.864;12.086;2022-11-02T12:31:01;3.10;;;1.87;;
9288;SDS011;4683;50.864;12.086;2022-11-02T12:33:47;4.37;;;1.80;;
9288;SDS011;4683;50.864;12.086;2022-11-02T12:36:48;4.23;;;1.77;;
9288;SDS011;4683;50.864;12.086;2022-11-02T12:39:32;3.27;;;1.37;;
9288;SDS011;4683;50.864;12.086;2022-11-02T12:42:21;4.83;;;1.40;;
9288;SDS011;4683;50.864;12.086;2022-11-02T12:44:59;2.83;;;1.33;;
9288;SDS011;4683;50.864;12.086;2022-11-02T12:47:56;3.37;;;1.60;;
9288;SDS011;4683;50.864;12.086;2022-11-02T12:50:34;2.07;;;1.37;;
9288;SDS011;4683;50.864;12.086;2022-11-02T12:53:32;1.53;;;0.97;;
9288;SDS011;4683;50.864;12.086;2022-11-02T12:56:13;3.87;;;1.80;;
9288;SDS011;4683;50.864;12.086;2022-11-02T12:58:51;2.57;;;1.63;;
9288;SDS011;4683;50.864;12.086;2022-11-02T13:01:22;5.97;;;1.87;;
9288;SDS011;4683;50.864;12.086;2022-11-02T13:03:59;3.00;;;1.37;;
9288;SDS011;4683;50.864;12.086;2022-11-02T13:06:37;6.00;;;1.77;;
9288;SDS011;4683;50.864;12.086;2022-11-02T13:09:11;4.07;;;1.60;;
9288;SDS011;4683;50.864;12.086;2022-11-02T13:11:49;4.23;;;2.00;;
9288;SDS011;4683;50.864;12.086;2022-11-02T13:14:26;3.83;;;1.67;;
9288;SDS011;4683;50.864;12.086;2022-11-02T13:17:05;4.73;;;2.43;;
9288;SDS011;4683;50.864;12.086;2022-11-02T13:19:44;4.43;;;1.63;;
9288;SDS011;4683;50.864;12.086;2022-11-02T13:22:20;3.93;;;1.63;;
9288;SDS011;4683;50.864;12.086;2022-11-02T13:24:55;1.97;;;0.80;;
9288;SDS011;4683;50.864;12.086;2022-11-02T13:27:31;4.13;;;1.53;;
9288;SDS011;4683;50.864;12.086;2022-11-02T13:30:11;2.50;;;1.27;;
9288;SDS011;4683;50.864;12.086;2022-11-02T13:32:42;4.43;;;2.27;;
9288;SDS011;4683;50.864;12.086;2022-11-02T13:35:19;4.93;;;1.60;;
9288;SDS011;4683;50.864;12.086;2022-11-02T13:37:55;2.90;;;1.40;;
9288;SDS011;4683;50.864;12.086;2022-11-02T13:40:33;3.53;;;1.63;;
9288;SDS011;4683;50.864;12.086;2022-11-02T13:43:27;1.83;;;1.37;;
9288;SDS011;4683;50.864;12.086;2022-11-02T13:46:42;3.80;;;1.47;;
9288;SDS011;4683;50.864;12.086;2022-11-02T13:49:37;2.80;;;1.60;;
9288;SDS011;4683;50.864;12.086;2022-11-02T13:52:13;4.10;;;1.77;;
9288;SDS011;4683;50.864;12.086;2022-11-02T13:54:47;1.70;;;1.10;;
9288;SDS011;4683;50.864;12.086;2022-11-02T13:57:22;3.93;;;1.57;;
9288;SDS011;4683;50.864;12.086;2022-11-02T14:00:00;2.70;;;1.60;;
9288;SDS011;4683;50.864;12.086;2022-11-02T14:05:43;3.47;;;1.20;;
9288;SDS011;4683;50.864;12.086;2022-11-02T14:08:29;1.93;;;1.50;;
9288;SDS011;4683;50.864;12.086;2022-11-02T14:11:04;3.47;;;1.60;;
9288;SDS011;4683;50.864;12.086;2022-11-02T14:17:09;2.33;;;1.30;;
9288;SDS011;4683;50.864;12.086;2022-11-02T14:19:53;2.83;;;1.37;;
9288;SDS011;4683;50.864;12.086;2022-11-02T14:22:30;3.13;;;1.67;;
9288;SDS011;4683;50.864;12.086;2022-11-02T14:25:17;4.37;;;1.20;;
9288;SDS011;4683;50.864;12.086;2022-11-02T14:27:49;3.13;;;1.57;;
9288;SDS011;4683;50.864;12.086;2022-11-02T14:33:16;2.83;;;1.23;;
9288;SDS011;4683;50.864;12.086;2022-11-02T14:36:23;2.73;;;1.40;;
9288;SDS011;4683;50.864;12.086;2022-11-02T14:39:14;3.57;;;1.33;;
9288;SDS011;4683;50.864;12.086;2022-11-02T14:42:06;4.07;;;2.40;;
9288;SDS011;4683;50.864;12.086;2022-11-02T14:44:59;6.47;;;2.27;;
9288;SDS011;4683;50.864;12.086;2022-11-02T14:47:47;4.97;;;1.77;;
9288;SDS011;4683;50.864;12.086;2022-11-02T14:50:22;1.57;;;1.10;;
9288;SDS011;4683;50.864;12.086;2022-11-02T14:52:55;3.83;;;1.40;;
9288;SDS011;4683;50.864;12.086;2022-11-02T14:55:28;3.50;;;1.43;;
9288;SDS011;4683;50.864;12.086;2022-11-02T14:58:01;5.67;;;1.63;;
9288;SDS011;4683;50.864;12.086;2022-11-02T15:00:34;3.30;;;1.33;;
9288;SDS011;4683;50.864;12.086;2022-11-02T15:03:11;4.13;;;1.53;;
9288;SDS011;4683;50.864;12.086;2022-11-02T15:06:00;3.57;;;1.20;;
9288;SDS011;4683;50.864;12.086;2022-11-02T15:08:34;2.27;;;1.40;;
9288;SDS011;4683;50.864;12.086;2022-11-02T15:14:49;3.73;;;1.43;;
9288;SDS011;4683;50.864;12.086;2022-11-02T15:24:02;3.97;;;2.20;;
9288;SDS011;4683;50.864;12.086;2022-11-02T15:26:51;5.50;;;2.23;;
9288;SDS011;4683;50.864;12.086;2022-11-02T15:29:30;2.63;;;1.47;;
9288;SDS011;4683;50.864;12.086;2022-11-02T15:32:10;5.70;;;1.73;;
9288;SDS011;4683;50.864;12.086;2022-11-02T15:34:46;3.20;;;2.27;;
9288;SDS011;4683;50.864;12.086;2022-11-02T15:37:19;3.63;;;1.87;;
9288;SDS011;4683;50.864;12.086;2022-11-02T15:39:50;4.10;;;2.33;;
9288;SDS011;4683;50.864;12.086;2022-11-02T15:42:24;6.63;;;2.57;;
9288;SDS011;4683;50.864;12.086;2022-11-02T15:45:12;4.77;;;2.80;;
9288;SDS011;4683;50.864;12.086;2022-11-02T15:48:01;4.27;;;2.33;;
9288;SDS011;4683;50.864;12.086;2022-11-02T15:50:43;6.03;;;3.03;;
9288;SDS011;4683;50.864;12.086;2022-11-02T15:56:43;5.33;;;2.27;;
9288;SDS011;4683;50.864;12.086;2022-11-02T15:59:29;3.87;;;1.70;;
9288;SDS011;4683;50.864;12.086;2022-11-02T16:02:24;4.30;;;2.00;;
9288;SDS011;4683;50.864;12.086;2022-11-02T16:04:54;4.30;;;2.63;;
9288;SDS011;4683;50.864;12.086;2022-11-02T16:07:27;6.27;;;3.10;;
9288;SDS011;4683;50.864;12.086;2022-11-02T16:10:09;4.60;;;2.77;;
9288;SDS011;4683;50.864;12.086;2022-11-02T16:12:57;6.20;;;2.83;;
9288;SDS011;4683;50.864;12.086;2022-11-02T16:15:28;6.57;;;4.77;;
9288;SDS011;4683;50.864;12.086;2022-11-02T16:17:59;5.67;;;4.70;;